sensor_id;sensor_type;location;lat;lon;timestamp;pressure;altitude;pressure_sealevel;temperature;humidity
63194;BME280;49289;51.670;5.624;2023-08-31T00:00:49;100964.86;;;20.29;61.86
63194;BME280;49289;51.670;5.624;2023-08-31T00:02:37;100945.27;;;20.26;61.64
63194;BME280;49289;51.670;5.624;2023-08-31T00:04:24;100967.09;;;20.26;61.47
63194;BME280;49289;51.670;5.624;2023-08-31T00:06:11;100961.39;;;20.21;61.68
63194;BME280;49289;51.670;5.624;2023-08-31T00:07:58;100944.69;;;20.08;62.07
63194;BME280;49289;51.670;5.624;2023-08-31T00:09:46;100946.14;;;20.20;61.95
63194;BME280;49289;51.670;5.624;2023-08-31T00:11:34;100942.13;;;19.81;62.69
63194;BME280;49289;51.670;5.624;2023-08-31T00:13:22;100963.72;;;20.17;62.46
63194;BME280;49289;51.670;5.624;2023-08-31T00:15:11;100960.52;;;20.09;62.33
63194;BME280;49289;51.670;5.624;2023-08-31T00:16:59;100971.02;;;19.92;62.29
63194;BME280;49289;51.670;5.624;2023-08-31T00:18:47;100973.55;;;19.50;63.98
63194;BME280;49289;51.670;5.624;2023-08-31T00:20:35;100970.23;;;19.02;66.15
63194;BME280;49289;51.670;5.624;2023-08-31T00:22:22;100970.63;;;19.40;65.88
63194;BME280;49289;51.670;5.624;2023-08-31T00:24:09;100961.89;;;19.06;67.14
63194;BME280;49289;51.670;5.624;2023-08-31T00:25:58;100965.59;;;18.94;66.42
63194;BME280;49289;51.670;5.624;2023-08-31T00:27:46;100967.88;;;19.26;67.22
63194;BME280;49289;51.670;5.624;2023-08-31T00:29:35;100964.38;;;19.65;65.84
63194;BME280;49289;51.670;5.624;2023-08-31T00:31:23;100964.19;;;19.93;64.67
63194;BME280;49289;51.670;5.624;2023-08-31T00:33:11;100965.31;;;19.72;64.85
63194;BME280;49289;51.670;5.624;2023-08-31T00:34:58;100943.27;;;19.27;65.57
63194;BME280;49289;51.670;5.624;2023-08-31T00:36:45;100970.35;;;18.80;67.92
63194;BME280;49289;51.670;5.624;2023-08-31T00:38:32;100963.32;;;19.21;68.08
63194;BME280;49289;51.670;5.624;2023-08-31T00:40:20;100964.11;;;19.14;67.83
63194;BME280;49289;51.670;5.624;2023-08-31T00:42:07;100941.80;;;19.34;66.75
63194;BME280;49289;51.670;5.624;2023-08-31T00:43:54;100960.55;;;19.56;66.89
63194;BME280;49289;51.670;5.624;2023-08-31T00:45:41;100933.02;;;19.26;67.02
63194;BME280;49289;51.670;5.624;2023-08-31T00:47:28;100957.76;;;19.31;66.24
63194;BME280;49289;51.670;5.624;2023-08-31T00:49:15;100936.39;;;19.33;67.12
63194;BME280;49289;51.670;5.624;2023-08-31T00:51:02;100933.13;;;19.10;66.87
63194;BME280;49289;51.670;5.624;2023-08-31T00:52:49;100952.67;;;19.08;68.53
63194;BME280;49289;51.670;5.624;2023-08-31T00:56:25;100952.08;;;19.40;67.35
63194;BME280;49289;51.670;5.624;2023-08-31T00:58:14;100926.09;;;19.36;67.04
63194;BME280;49289;51.670;5.624;2023-08-31T01:00:02;100958.38;;;19.66;66.37
63194;BME280;49289;51.670;5.624;2023-08-31T01:01:49;100926.37;;;19.05;67.05
63194;BME280;49289;51.670;5.624;2023-08-31T01:03:46;100960.34;;;18.42;71.06
63194;BME280;49289;51.670;5.624;2023-08-31T01:05:29;100965.34;;;18.14;72.80
63194;BME280;49289;51.670;5.624;2023-08-31T01:07:17;100965.71;;;17.85;75.83
63194;BME280;49289;51.670;5.624;2023-08-31T01:09:06;100966.77;;;18.07;75.03
63194;BME280;49289;51.670;5.624;2023-08-31T01:10:54;100959.85;;;19.12;71.66
63194;BME280;49289;51.670;5.624;2023-08-31T01:12:44;100955.88;;;19.16;69.39
63194;BME280;49289;51.670;5.624;2023-08-31T01:14:31;100956.33;;;19.20;69.63
63194;BME280;49289;51.670;5.624;2023-08-31T01:16:18;100957.05;;;19.23;69.09
63194;BME280;49289;51.670;5.624;2023-08-31T01:18:06;100958.63;;;19.55;68.21
63194;BME280;49289;51.670;5.624;2023-08-31T01:19:57;100934.94;;;19.18;68.43
63194;BME280;49289;51.670;5.624;2023-08-31T01:21:45;100959.52;;;19.32;69.32
63194;BME280;49289;51.670;5.624;2023-08-31T01:25:21;100938.09;;;19.04;70.68
63194;BME280;49289;51.670;5.624;2023-08-31T01:27:10;100947.05;;;19.12;69.70
63194;BME280;49289;51.670;5.624;2023-08-31T01:28:58;100968.80;;;19.40;68.80
63194;BME280;49289;51.670;5.624;2023-08-31T01:30:46;100971.49;;;19.12;70.04
63194;BME280;49289;51.670;5.624;2023-08-31T01:32:33;100940.70;;;19.01;70.25
63194;BME280;49289;51.670;5.624;2023-08-31T01:34:20;100953.47;;;18.86;71.36
63194;BME280;49289;51.670;5.624;2023-08-31T01:36:08;100976.75;;;19.13;70.87
63194;BME280;49289;51.670;5.624;2023-08-31T01:37:57;100959.85;;;18.26;72.49
63194;BME280;49289;51.670;5.624;2023-08-31T01:39:46;100952.34;;;18.91;71.53
63194;BME280;49289;51.670;5.624;2023-08-31T01:41:33;100950.30;;;18.85;70.98
63194;BME280;49289;51.670;5.624;2023-08-31T01:43:19;100985.77;;;18.66;72.99
63194;BME280;49289;51.670;5.624;2023-08-31T01:45:08;100961.78;;;18.79;71.34
63194;BME280;49289;51.670;5.624;2023-08-31T01:47:02;100984.81;;;18.51;73.47
63194;BME280;49289;51.670;5.624;2023-08-31T01:48:45;100987.88;;;18.49;73.53
63194;BME280;49289;51.670;5.624;2023-08-31T01:50:32;100967.59;;;18.28;74.66
63194;BME280;49289;51.670;5.624;2023-08-31T01:52:21;100991.63;;;18.43;74.21
63194;BME280;49289;51.670;5.624;2023-08-31T01:54:09;100985.73;;;18.80;73.90
63194;BME280;49289;51.670;5.624;2023-08-31T01:55:57;100982.80;;;18.58;74.54
63194;BME280;49289;51.670;5.624;2023-08-31T01:57:45;100983.41;;;18.52;74.13
63194;BME280;49289;51.670;5.624;2023-08-31T01:59:33;100986.01;;;18.54;74.18
63194;BME280;49289;51.670;5.624;2023-08-31T02:01:21;100962.32;;;18.11;75.24
63194;BME280;49289;51.670;5.624;2023-08-31T02:03:10;100985.16;;;18.43;75.16
63194;BME280;49289;51.670;5.624;2023-08-31T02:04:57;100961.25;;;18.46;74.56
63194;BME280;49289;51.670;5.624;2023-08-31T02:06:44;100981.45;;;19.01;72.81
63194;BME280;49289;51.670;5.624;2023-08-31T02:08:31;100958.91;;;18.32;73.81
63194;BME280;49289;51.670;5.624;2023-08-31T02:10:19;100988.66;;;18.39;75.39
63194;BME280;49289;51.670;5.624;2023-08-31T02:12:06;100974.36;;;19.17;72.13
63194;BME280;49289;51.670;5.624;2023-08-31T02:13:53;100944.48;;;19.36;70.39
63194;BME280;49289;51.670;5.624;2023-08-31T02:15:43;100969.52;;;18.96;70.03
63194;BME280;49289;51.670;5.624;2023-08-31T02:17:31;100979.86;;;18.53;72.71
63194;BME280;49289;51.670;5.624;2023-08-31T02:19:19;100958.20;;;18.69;73.44
63194;BME280;49289;51.670;5.624;2023-08-31T02:21:08;100976.34;;;18.86;72.76
63194;BME280;49289;51.670;5.624;2023-08-31T02:22:56;100951.40;;;18.87;72.14
63194;BME280;49289;51.670;5.624;2023-08-31T02:24:44;100949.88;;;19.14;71.24
63194;BME280;49289;51.670;5.624;2023-08-31T02:26:31;100949.51;;;18.61;71.80
63194;BME280;49289;51.670;5.624;2023-08-31T02:28:18;100977.80;;;18.67;72.78
63194;BME280;49289;51.670;5.624;2023-08-31T02:30:05;100978.09;;;18.81;73.51
63194;BME280;49289;51.670;5.624;2023-08-31T02:31:52;100975.44;;;19.37;70.90
63194;BME280;49289;51.670;5.624;2023-08-31T02:33:39;100951.22;;;19.03;70.64
63194;BME280;49289;51.670;5.624;2023-08-31T02:35:28;100951.17;;;19.01;70.92
63194;BME280;49289;51.670;5.624;2023-08-31T02:37:16;100977.88;;;18.91;70.92
63194;BME280;49289;51.670;5.624;2023-08-31T02:39:04;100973.35;;;19.23;70.98
63194;BME280;49289;51.670;5.624;2023-08-31T02:40:52;100987.22;;;18.50;73.39
63194;BME280;49289;51.670;5.624;2023-08-31T02:42:40;100966.24;;;18.41;73.59
63194;BME280;49289;51.670;5.624;2023-08-31T02:44:28;100987.19;;;18.75;74.77
63194;BME280;49289;51.670;5.624;2023-08-31T02:46:15;100957.28;;;19.35;71.23
63194;BME280;49289;51.670;5.624;2023-08-31T02:48:02;100963.41;;;19.53;70.44
63194;BME280;49289;51.670;5.624;2023-08-31T02:49:49;100977.00;;;19.43;70.66
63194;BME280;49289;51.670;5.624;2023-08-31T02:52:21;100977.02;;;19.65;69.87
63194;BME280;49289;51.670;5.624;2023-08-31T02:54:09;100958.05;;;19.23;70.10
63194;BME280;49289;51.670;5.624;2023-08-31T02:55:57;100961.72;;;18.72;72.13
63194;BME280;49289;51.670;5.624;2023-08-31T02:57:45;100957.41;;;19.51;70.53
63194;BME280;49289;51.670;5.624;2023-08-31T02:59:33;100979.77;;;19.65;69.18
63194;BME280;49289;51.670;5.624;2023-08-31T03:01:21;100976.27;;;19.95;68.29
63194;BME280;49289;51.670;5.624;2023-08-31T03:03:09;100977.62;;;20.15;67.22
63194;BME280;49289;51.670;5.624;2023-08-31T03:04:57;100981.05;;;20.19;66.73
63194;BME280;49289;51.670;5.624;2023-08-31T03:06:45;100980.77;;;19.95;67.19
63194;BME280;49289;51.670;5.624;2023-08-31T03:08:33;100984.32;;;19.76;67.72
63194;BME280;49289;51.670;5.624;2023-08-31T03:10:21;100988.12;;;19.51;68.71
63194;BME280;49289;51.670;5.624;2023-08-31T03:12:09;100959.20;;;19.64;68.29
63194;BME280;49289;51.670;5.624;2023-08-31T03:13:57;100958.77;;;19.79;68.18
63194;BME280;49289;51.670;5.624;2023-08-31T03:15:45;100984.28;;;20.14;67.15
63194;BME280;49289;51.670;5.624;2023-08-31T03:17:33;100958.77;;;19.79;67.08
63194;BME280;49289;51.670;5.624;2023-08-31T03:19:21;100980.69;;;20.09;67.75
63194;BME280;49289;51.670;5.624;2023-08-31T03:21:09;100977.67;;;19.79;68.00
63194;BME280;49289;51.670;5.624;2023-08-31T03:22:57;100986.27;;;19.07;70.17
63194;BME280;49289;51.670;5.624;2023-08-31T03:24:45;100984.11;;;19.57;69.81
63194;BME280;49289;51.670;5.624;2023-08-31T03:26:33;100982.87;;;19.60;68.75
63194;BME280;49289;51.670;5.624;2023-08-31T03:28:20;100981.41;;;19.89;67.78
63194;BME280;49289;51.670;5.624;2023-08-31T03:30:07;100955.09;;;19.30;68.94
63194;BME280;49289;51.670;5.624;2023-08-31T03:31:54;100984.75;;;19.44;69.58
63194;BME280;49289;51.670;5.624;2023-08-31T03:33:41;100988.83;;;18.89;72.00
63194;BME280;49289;51.670;5.624;2023-08-31T03:35:28;100987.04;;;19.10;70.94
63194;BME280;49289;51.670;5.624;2023-08-31T03:37:16;100994.05;;;18.86;72.49
63194;BME280;49289;51.670;5.624;2023-08-31T03:39:05;100987.28;;;19.50;70.53
63194;BME280;49289;51.670;5.624;2023-08-31T03:40:58;100987.43;;;19.65;68.95
63194;BME280;49289;51.670;5.624;2023-08-31T03:42:46;100985.51;;;18.99;71.01
63194;BME280;49289;51.670;5.624;2023-08-31T03:44:33;100970.23;;;18.76;71.77
63194;BME280;49289;51.670;5.624;2023-08-31T03:46:20;100966.88;;;18.81;72.22
63194;BME280;49289;51.670;5.624;2023-08-31T03:48:07;100961.42;;;18.93;71.73
63194;BME280;49289;51.670;5.624;2023-08-31T03:49:54;100987.86;;;18.56;72.37
63194;BME280;49289;51.670;5.624;2023-08-31T03:51:42;100964.69;;;18.49;73.73
63194;BME280;49289;51.670;5.624;2023-08-31T03:53:31;100987.54;;;18.49;74.50
63194;BME280;49289;51.670;5.624;2023-08-31T03:55:19;100991.06;;;18.39;74.77
63194;BME280;49289;51.670;5.624;2023-08-31T03:57:06;100962.42;;;18.33;75.00
63194;BME280;49289;51.670;5.624;2023-08-31T03:58:53;100946.99;;;18.87;72.84
63194;BME280;49289;51.670;5.624;2023-08-31T04:00:40;100981.86;;;18.74;73.70
63194;BME280;49289;51.670;5.624;2023-08-31T04:02:27;100984.50;;;18.31;75.57
63194;BME280;49289;51.670;5.624;2023-08-31T04:04:14;100983.02;;;18.20;75.35
63194;BME280;49289;51.670;5.624;2023-08-31T04:06:01;100970.33;;;17.78;77.38
63194;BME280;49289;51.670;5.624;2023-08-31T04:07:48;100994.11;;;18.16;76.14
63194;BME280;49289;51.670;5.624;2023-08-31T04:09:35;100970.20;;;17.85;77.08
63194;BME280;49289;51.670;5.624;2023-08-31T04:11:24;100990.48;;;18.12;78.50
63194;BME280;49289;51.670;5.624;2023-08-31T04:13:10;100970.78;;;17.64;78.92
63194;BME280;49289;51.670;5.624;2023-08-31T04:14:58;100999.13;;;18.01;77.94
63194;BME280;49289;51.670;5.624;2023-08-31T04:16:47;100974.97;;;18.14;77.05
63194;BME280;49289;51.670;5.624;2023-08-31T04:18:36;101006.67;;;18.79;75.49
63194;BME280;49289;51.670;5.624;2023-08-31T04:20:24;100982.18;;;19.24;72.50
63194;BME280;49289;51.670;5.624;2023-08-31T04:22:11;100980.09;;;19.04;72.59
63194;BME280;49289;51.670;5.624;2023-08-31T04:23:58;101001.63;;;19.34;71.23
63194;BME280;49289;51.670;5.624;2023-08-31T04:25:45;100977.38;;;19.29;70.03
63194;BME280;49289;51.670;5.624;2023-08-31T04:27:32;101001.23;;;19.37;70.70
63194;BME280;49289;51.670;5.624;2023-08-31T04:29:19;100984.02;;;19.25;70.67
63194;BME280;49289;51.670;5.624;2023-08-31T04:31:06;101011.91;;;18.83;72.69
63194;BME280;49289;51.670;5.624;2023-08-31T04:32:53;100988.80;;;18.84;72.91
63194;BME280;49289;51.670;5.624;2023-08-31T04:34:41;101008.09;;;19.12;72.09
63194;BME280;49289;51.670;5.624;2023-08-31T04:36:30;101002.75;;;19.02;71.69
63194;BME280;49289;51.670;5.624;2023-08-31T04:38:18;100991.09;;;18.46;72.46
63194;BME280;49289;51.670;5.624;2023-08-31T04:40:06;101020.73;;;18.14;76.63
63194;BME280;49289;51.670;5.624;2023-08-31T04:41:54;101020.56;;;17.89;77.41
63194;BME280;49289;51.670;5.624;2023-08-31T04:43:42;101021.33;;;18.26;76.19
63194;BME280;49289;51.670;5.624;2023-08-31T04:45:30;101020.86;;;18.48;75.62
63194;BME280;49289;51.670;5.624;2023-08-31T04:47:18;101017.57;;;18.39;75.19
63194;BME280;49289;51.670;5.624;2023-08-31T04:49:07;101012.08;;;18.51;75.23
63194;BME280;49289;51.670;5.624;2023-08-31T04:50:55;101017.63;;;18.17;76.51
63194;BME280;49289;51.670;5.624;2023-08-31T04:52:41;101021.02;;;18.55;75.49
63194;BME280;49289;51.670;5.624;2023-08-31T04:54:29;101023.77;;;18.76;73.46
63194;BME280;49289;51.670;5.624;2023-08-31T04:56:16;101032.47;;;18.15;74.32
63194;BME280;49289;51.670;5.624;2023-08-31T04:58:05;101028.70;;;18.92;73.80
63194;BME280;49289;51.670;5.624;2023-08-31T04:59:53;101034.24;;;18.37;74.78
63194;BME280;49289;51.670;5.624;2023-08-31T05:01:41;101034.83;;;18.37;75.45
63194;BME280;49289;51.670;5.624;2023-08-31T05:03:29;101030.94;;;18.31;75.16
63194;BME280;49289;51.670;5.624;2023-08-31T05:05:17;101035.43;;;18.06;77.16
63194;BME280;49289;51.670;5.624;2023-08-31T05:09:08;101041.04;;;17.93;76.02
63194;BME280;49289;51.670;5.624;2023-08-31T05:10:57;101048.95;;;17.73;78.08
63194;BME280;49289;51.670;5.624;2023-08-31T05:12:44;101025.81;;;17.65;77.33
63194;BME280;49289;51.670;5.624;2023-08-31T05:14:31;101029.55;;;17.91;77.36
63194;BME280;49289;51.670;5.624;2023-08-31T05:16:18;101035.56;;;17.22;79.60
63194;BME280;49289;51.670;5.624;2023-08-31T05:18:07;101053.28;;;18.13;77.63
63194;BME280;49289;51.670;5.624;2023-08-31T05:19:54;101035.58;;;17.23;80.13
63194;BME280;49289;51.670;5.624;2023-08-31T05:21:43;101060.21;;;18.03;77.26
63194;BME280;49289;51.670;5.624;2023-08-31T05:23:31;101067.93;;;17.77;78.73
63194;BME280;49289;51.670;5.624;2023-08-31T05:25:19;101045.30;;;18.50;75.59
63194;BME280;49289;51.670;5.624;2023-08-31T05:27:08;101073.42;;;18.10;77.19
63194;BME280;49289;51.670;5.624;2023-08-31T05:28:56;101072.85;;;18.46;76.59
63194;BME280;49289;51.670;5.624;2023-08-31T05:30:49;101075.31;;;18.58;74.91
63194;BME280;49289;51.670;5.624;2023-08-31T05:32:37;101081.03;;;17.85;77.78
63194;BME280;49289;51.670;5.624;2023-08-31T05:34:28;101060.34;;;17.69;79.66
63194;BME280;49289;51.670;5.624;2023-08-31T05:36:15;101084.05;;;18.10;78.78
63194;BME280;49289;51.670;5.624;2023-08-31T05:38:02;101058.94;;;17.97;78.33
63194;BME280;49289;51.670;5.624;2023-08-31T05:39:53;101084.92;;;18.06;78.26
63194;BME280;49289;51.670;5.624;2023-08-31T05:41:41;101091.88;;;17.73;79.49
63194;BME280;49289;51.670;5.624;2023-08-31T05:43:32;101089.20;;;18.40;76.78
63194;BME280;49289;51.670;5.624;2023-08-31T05:45:20;101071.83;;;18.58;73.68
63194;BME280;49289;51.670;5.624;2023-08-31T05:47:07;101070.05;;;17.95;75.71
63194;BME280;49289;51.670;5.624;2023-08-31T05:48:54;101092.45;;;17.88;77.65
63194;BME280;49289;51.670;5.624;2023-08-31T05:50:42;101092.34;;;18.32;77.42
63194;BME280;49289;51.670;5.624;2023-08-31T05:52:29;101083.95;;;18.21;76.78
63194;BME280;49289;51.670;5.624;2023-08-31T05:54:18;101071.36;;;18.01;76.88
63194;BME280;49289;51.670;5.624;2023-08-31T05:56:07;101087.50;;;18.19;76.39
63194;BME280;49289;51.670;5.624;2023-08-31T05:57:54;101067.84;;;17.67;78.24
63194;BME280;49289;51.670;5.624;2023-08-31T05:59:41;101088.37;;;18.04;78.01
63194;BME280;49289;51.670;5.624;2023-08-31T06:01:28;101066.44;;;17.92;77.10
63194;BME280;49289;51.670;5.624;2023-08-31T06:03:15;101092.98;;;18.85;74.67
63194;BME280;49289;51.670;5.624;2023-08-31T06:05:03;101094.52;;;18.89;73.87
63194;BME280;49289;51.670;5.624;2023-08-31T06:06:50;101069.89;;;18.37;74.87
63194;BME280;49289;51.670;5.624;2023-08-31T06:08:39;101075.75;;;18.45;74.38
63194;BME280;49289;51.670;5.624;2023-08-31T06:10:27;101098.23;;;18.81;74.05
63194;BME280;49289;51.670;5.624;2023-08-31T06:12:15;101078.38;;;18.38;74.38
63194;BME280;49289;51.670;5.624;2023-08-31T06:14:01;101099.77;;;17.95;79.12
63194;BME280;49289;51.670;5.624;2023-08-31T06:15:49;101105.45;;;18.14;78.52
63194;BME280;49289;51.670;5.624;2023-08-31T06:17:37;101108.82;;;18.27;77.40
63194;BME280;49289;51.670;5.624;2023-08-31T06:19:25;101109.78;;;18.55;77.21
63194;BME280;49289;51.670;5.624;2023-08-31T06:21:12;101090.64;;;18.46;75.64
63194;BME280;49289;51.670;5.624;2023-08-31T06:23:00;101111.17;;;18.19;76.20
63194;BME280;49289;51.670;5.624;2023-08-31T06:24:48;101092.13;;;18.34;77.03
63194;BME280;49289;51.670;5.624;2023-08-31T06:26:35;101122.32;;;18.83;74.90
63194;BME280;49289;51.670;5.624;2023-08-31T06:28:22;101094.34;;;18.74;74.11
63194;BME280;49289;51.670;5.624;2023-08-31T06:30:10;101098.28;;;18.29;75.52
63194;BME280;49289;51.670;5.624;2023-08-31T06:31:57;101120.83;;;18.42;75.99
63194;BME280;49289;51.670;5.624;2023-08-31T06:33:44;101119.95;;;18.34;76.80
63194;BME280;49289;51.670;5.624;2023-08-31T06:35:33;101097.13;;;18.12;75.92
63194;BME280;49289;51.670;5.624;2023-08-31T06:37:22;101126.21;;;18.53;76.80
63194;BME280;49289;51.670;5.624;2023-08-31T06:39:10;101123.86;;;19.18;75.10
63194;BME280;49289;51.670;5.624;2023-08-31T06:40:58;101098.17;;;18.44;75.26
63194;BME280;49289;51.670;5.624;2023-08-31T06:42:47;101123.42;;;18.65;75.78
63194;BME280;49289;51.670;5.624;2023-08-31T06:44:33;101125.30;;;19.11;74.49
63194;BME280;49289;51.670;5.624;2023-08-31T06:46:21;101127.95;;;18.60;77.21
63194;BME280;49289;51.670;5.624;2023-08-31T06:48:10;101099.62;;;19.04;74.83
63194;BME280;49289;51.670;5.624;2023-08-31T06:49:57;101125.91;;;19.45;73.50
63194;BME280;49289;51.670;5.624;2023-08-31T06:51:47;101109.13;;;18.81;75.04
63194;BME280;49289;51.670;5.624;2023-08-31T06:53:38;101126.41;;;18.55;75.92
63194;BME280;49289;51.670;5.624;2023-08-31T06:55:25;101131.28;;;18.70;76.72
63194;BME280;49289;51.670;5.624;2023-08-31T06:57:12;101130.77;;;19.47;74.81
63194;BME280;49289;51.670;5.624;2023-08-31T06:58:59;101134.05;;;19.43;73.51
63194;BME280;49289;51.670;5.624;2023-08-31T07:00:46;101131.53;;;19.34;74.76
63194;BME280;49289;51.670;5.624;2023-08-31T07:02:33;101139.45;;;19.57;73.49
63194;BME280;49289;51.670;5.624;2023-08-31T07:04:20;101139.95;;;18.79;77.72
63194;BME280;49289;51.670;5.624;2023-08-31T07:06:08;101136.56;;;19.45;75.61
63194;BME280;49289;51.670;5.624;2023-08-31T07:07:57;101133.56;;;19.53;74.71
63194;BME280;49289;51.670;5.624;2023-08-31T07:09:45;101138.86;;;19.25;75.14
63194;BME280;49289;51.670;5.624;2023-08-31T07:11:32;101144.88;;;19.66;72.98
63194;BME280;49289;51.670;5.624;2023-08-31T07:13:20;101151.67;;;19.62;73.34
63194;BME280;49289;51.670;5.624;2023-08-31T07:15:09;101125.03;;;19.94;72.73
63194;BME280;49289;51.670;5.624;2023-08-31T07:16:56;101156.13;;;19.79;73.46
63194;BME280;49289;51.670;5.624;2023-08-31T07:18:43;101146.52;;;20.24;71.03
63194;BME280;49289;51.670;5.624;2023-08-31T07:20:31;101151.41;;;19.90;72.67
63194;BME280;49289;51.670;5.624;2023-08-31T07:22:20;101152.20;;;20.03;72.68
63194;BME280;49289;51.670;5.624;2023-08-31T07:24:08;101153.81;;;19.47;73.08
63194;BME280;49289;51.670;5.624;2023-08-31T07:25:56;101155.59;;;19.91;73.40
63194;BME280;49289;51.670;5.624;2023-08-31T07:27:44;101155.72;;;19.62;73.13
63194;BME280;49289;51.670;5.624;2023-08-31T07:29:32;101156.06;;;19.69;74.69
63194;BME280;49289;51.670;5.624;2023-08-31T07:31:19;101154.33;;;19.34;74.55
63194;BME280;49289;51.670;5.624;2023-08-31T07:33:06;101130.47;;;19.96;75.08
63194;BME280;49289;51.670;5.624;2023-08-31T07:34:53;101128.42;;;20.23;73.36
63194;BME280;49289;51.670;5.624;2023-08-31T07:36:41;101153.96;;;20.51;71.32
63194;BME280;49289;51.670;5.624;2023-08-31T07:38:30;101148.44;;;20.16;73.02
63194;BME280;49289;51.670;5.624;2023-08-31T07:40:19;101137.60;;;19.73;75.33
63194;BME280;49289;51.670;5.624;2023-08-31T07:42:07;101152.64;;;20.56;72.74
63194;BME280;49289;51.670;5.624;2023-08-31T07:43:54;101152.75;;;21.15;70.88
63194;BME280;49289;51.670;5.624;2023-08-31T07:45:41;101005.39;;;20.20;69.99
63194;BME280;49289;51.670;5.624;2023-08-31T07:47:28;101127.25;;;20.39;70.33
63194;BME280;49289;51.670;5.624;2023-08-31T07:49:16;101133.98;;;19.80;73.06
63194;BME280;49289;51.670;5.624;2023-08-31T07:51:05;101126.10;;;20.25;73.78
63194;BME280;49289;51.670;5.624;2023-08-31T07:52:52;101151.52;;;20.99;69.89
63194;BME280;49289;51.670;5.624;2023-08-31T07:54:39;101132.63;;;21.36;69.39
63194;BME280;49289;51.670;5.624;2023-08-31T07:56:27;101136.13;;;21.06;68.52
63194;BME280;49289;51.670;5.624;2023-08-31T07:58:15;101140.08;;;20.94;69.55
63194;BME280;49289;51.670;5.624;2023-08-31T08:00:02;101136.39;;;20.71;69.95
63194;BME280;49289;51.670;5.624;2023-08-31T08:01:49;101140.41;;;20.61;71.50
63194;BME280;49289;51.670;5.624;2023-08-31T08:03:36;101164.77;;;21.17;69.94
63194;BME280;49289;51.670;5.624;2023-08-31T08:05:23;101163.84;;;20.37;71.34
63194;BME280;49289;51.670;5.624;2023-08-31T08:07:10;101163.70;;;20.18;73.14
63194;BME280;49289;51.670;5.624;2023-08-31T08:08:57;101148.14;;;20.69;72.11
63194;BME280;49289;51.670;5.624;2023-08-31T08:10:45;101146.92;;;20.98;70.14
63194;BME280;49289;51.670;5.624;2023-08-31T08:12:33;101169.50;;;20.36;71.82
63194;BME280;49289;51.670;5.624;2023-08-31T08:14:22;101170.84;;;21.05;69.85
63194;BME280;49289;51.670;5.624;2023-08-31T08:16:10;101171.75;;;20.57;72.65
63194;BME280;49289;51.670;5.624;2023-08-31T08:17:58;101163.56;;;21.54;69.91
63194;BME280;49289;51.670;5.624;2023-08-31T08:19:45;101174.67;;;21.03;69.09
63194;BME280;49289;51.670;5.624;2023-08-31T08:21:33;101159.76;;;21.16;69.23
63194;BME280;49289;51.670;5.624;2023-08-31T08:23:20;101180.28;;;20.78;69.01
63194;BME280;49289;51.670;5.624;2023-08-31T08:25:07;101158.66;;;20.89;68.89
63194;BME280;49289;51.670;5.624;2023-08-31T08:26:54;101181.27;;;20.86;69.96
63194;BME280;49289;51.670;5.624;2023-08-31T08:28:41;101174.17;;;21.59;68.04
63194;BME280;49289;51.670;5.624;2023-08-31T08:30:29;101177.55;;;21.41;66.78
63194;BME280;49289;51.670;5.624;2023-08-31T08:32:18;101177.12;;;21.15;67.88
63194;BME280;49289;51.670;5.624;2023-08-31T08:34:06;101180.38;;;21.71;67.21
63194;BME280;49289;51.670;5.624;2023-08-31T08:35:55;101179.67;;;21.43;67.20
63194;BME280;49289;51.670;5.624;2023-08-31T08:37:40;101180.44;;;22.06;65.92
63194;BME280;49289;51.670;5.624;2023-08-31T08:39:28;101150.81;;;21.93;64.98
63194;BME280;49289;51.670;5.624;2023-08-31T08:41:18;101154.41;;;21.63;67.35
63194;BME280;49289;51.670;5.624;2023-08-31T08:43:06;101179.06;;;21.93;66.33
63194;BME280;49289;51.670;5.624;2023-08-31T08:44:53;101180.34;;;21.49;66.21
63194;BME280;49289;51.670;5.624;2023-08-31T08:46:42;101176.46;;;22.41;64.21
63194;BME280;49289;51.670;5.624;2023-08-31T08:48:29;101175.14;;;22.73;61.93
63194;BME280;49289;51.670;5.624;2023-08-31T08:50:17;101157.88;;;21.45;64.66
63194;BME280;49289;51.670;5.624;2023-08-31T08:52:05;101164.35;;;21.17;65.36
63194;BME280;49289;51.670;5.624;2023-08-31T08:53:53;101184.50;;;21.84;64.46
63194;BME280;49289;51.670;5.624;2023-08-31T08:55:40;101187.42;;;21.94;63.22
63194;BME280;49289;51.670;5.624;2023-08-31T08:57:27;101193.29;;;22.19;62.40
63194;BME280;49289;51.670;5.624;2023-08-31T08:59:14;101182.67;;;22.44;61.41
63194;BME280;49289;51.670;5.624;2023-08-31T09:01:01;101162.27;;;22.35;61.48
63194;BME280;49289;51.670;5.624;2023-08-31T09:02:48;101171.95;;;21.71;63.55
63194;BME280;49289;51.670;5.624;2023-08-31T09:04:36;100999.89;;;21.53;61.21
63194;BME280;49289;51.670;5.624;2023-08-31T09:06:25;101183.50;;;22.46;58.97
63194;BME280;49289;51.670;5.624;2023-08-31T09:08:13;101169.44;;;21.16;63.11
63194;BME280;49289;51.670;5.624;2023-08-31T09:10:01;101166.13;;;22.13;62.01
63194;BME280;49289;51.670;5.624;2023-08-31T09:11:50;101162.69;;;22.33;60.18
63194;BME280;49289;51.670;5.624;2023-08-31T09:13:39;101162.91;;;22.90;60.65
63194;BME280;49289;51.670;5.624;2023-08-31T09:15:35;101185.62;;;23.19;59.61
63194;BME280;49289;51.670;5.624;2023-08-31T09:17:15;101176.05;;;22.36;58.38
63194;BME280;49289;51.670;5.624;2023-08-31T09:19:03;101185.01;;;22.34;59.76
63194;BME280;49289;51.670;5.624;2023-08-31T09:20:59;101185.33;;;22.50;60.58
63194;BME280;49289;51.670;5.624;2023-08-31T09:22:47;101187.44;;;22.73;58.91
63194;BME280;49289;51.670;5.624;2023-08-31T09:24:46;101170.02;;;23.22;57.66
63194;BME280;49289;51.670;5.624;2023-08-31T09:26:33;101188.27;;;23.22;56.73
63194;BME280;49289;51.670;5.624;2023-08-31T09:28:20;101186.59;;;23.11;56.18
63194;BME280;49289;51.670;5.624;2023-08-31T09:30:07;101170.30;;;23.05;56.12